Time;durP1;ratioP1;P1;durP2;ratioP2;P2;SDS_P1;SDS_P2;PMS_P1;PMS_P2;Temp;Humidity;BMP_temperature;BMP_pressure;BME280_temperature;BME280_humidity;BME280_pressure;Samples;Min_cycle;Max_cycle;Signal;HPM_P1;HPM_P2
2021/12/18 00:00:32;;;;;;;;;;;7.30;99.90;;;;;;5094165;28;19951;-80
2021/12/18 00:02:58;;;;;;;;;;;7.20;99.90;;;;;;5094108;28;19908;-81
2021/12/18 00:05:23;;;;;;;;;;;7.30;99.90;;;;;;5094134;28;19908;-80
2021/12/18 00:07:49;;;;;;;;;;;7.30;99.90;;;;;;5094298;28;19908;-82
2021/12/18 00:10:14;;;;;;;;;;;7.30;99.90;;;;;;5093808;28;19916;-81
2021/12/18 00:12:47;;;;;;;;;;;7.30;99.90;;;;;;5093942;28;20011;-78
2021/12/18 00:15:13;;;;;;;;;;;7.20;99.90;;;;;;5094206;28;19908;-81
2021/12/18 00:17:39;;;;;;;;;;;7.30;99.90;;;;;;5075768;28;19912;-82
2021/12/18 00:20:05;;;;;;;;;;;7.20;99.90;;;;;;5093966;28;19916;-82
2021/12/18 00:22:30;;;;;;;;;;;7.20;99.90;;;;;;5075739;28;20319;-80
2021/12/18 00:24:56;;;;;;;;;;;7.20;99.90;;;;;;5094022;28;19919;-81
2021/12/18 00:27:22;;;;;;;;;;;7.10;99.90;;;;;;5075753;28;19908;-81
2021/12/18 00:29:47;;;;;;;;;;;7.20;99.90;;;;;;5093854;28;19908;-80
2021/12/18 00:32:13;;;;;;;;;;;7.00;99.90;;;;;;5094053;28;20391;-80
2021/12/18 00:34:39;;;;;;;;;;;6.90;99.90;;;;;;5093750;28;20253;-81
2021/12/18 00:37:05;;;;;;;;;;;7.00;99.90;;;;;;5093916;28;19943;-82
2021/12/18 00:39:32;;;;;;;;;;;6.80;99.90;;;;;;5075485;28;19951;-80
2021/12/18 00:42:47;;;;;;;;;;;6.80;99.90;;;;;;5094079;28;19916;-82
2021/12/18 00:44:47;;;;;;;;;;;6.90;99.90;;;;;;5085168;28;20349;-81
2021/12/18 00:47:12;;;;;;;;;;;6.80;99.90;;;;;;5075583;28;19936;-84
2021/12/18 00:49:38;;;;;;;;;;;6.70;99.90;;;;;;5093612;28;19995;-82
2021/12/18 00:52:04;;;;;;;;;;;6.70;99.90;;;;;;5093579;28;20364;-83
2021/12/18 00:54:31;;;;;;;;;;;6.70;99.90;;;;;;5093459;28;19915;-81
2021/12/18 00:56:56;;;;;;;;;;;6.60;99.90;;;;;;5093702;28;19916;-84
2021/12/18 00:59:22;;;;;;;;;;;6.70;99.90;;;;;;5093446;28;20045;-79
2021/12/18 01:01:48;;;;;;;;;;;6.70;99.90;;;;;;5093447;28;19990;-80
2021/12/18 01:04:13;;;;;;;;;;;6.70;99.90;;;;;;5093494;28;19908;-81
2021/12/18 01:06:39;;;;;;;;;;;6.80;99.90;;;;;;5075263;28;20381;-86
2021/12/18 01:09:05;;;;;;;;;;;6.80;99.90;;;;;;5093483;28;19909;-84
2021/12/18 01:11:35;;;;;;;;;;;6.60;99.90;;;;;;5093471;28;20376;-82
2021/12/18 01:16:48;;;;;;;;;;;6.60;99.90;;;;;;5093373;28;19935;-81
2021/12/18 01:24:42;;;;;;;;;;;6.50;99.90;;;;;;5097047;28;19915;-80
2021/12/18 01:27:07;;;;;;;;;;;6.50;99.90;;;;;;5078928;28;19908;-80
2021/12/18 01:29:33;;;;;;;;;;;6.40;99.90;;;;;;5097106;28;20360;-80
2021/12/18 01:31:58;;;;;;;;;;;6.40;99.90;;;;;;5078820;28;20003;-81
2021/12/18 01:34:24;;;;;;;;;;;6.50;99.90;;;;;;5097183;28;19908;-80
2021/12/18 01:36:50;;;;;;;;;;;6.50;99.90;;;;;;5096962;28;19999;-81
2021/12/18 01:39:15;;;;;;;;;;;6.50;99.90;;;;;;5096690;28;19938;-83
2021/12/18 01:42:05;;;;;;;;;;;6.40;99.90;;;;;;5078629;28;19954;-80
2021/12/18 01:44:54;;;;;;;;;;;6.50;99.90;;;;;;5096596;28;19919;-82
2021/12/18 01:52:53;;;;;;;;;;;6.40;99.90;;;;;;5096614;28;20287;-81
2021/12/18 01:55:20;;;;;;;;;;;6.40;99.90;;;;;;5096737;28;19908;-79
2021/12/18 01:57:45;;;;;;;;;;;6.30;99.90;;;;;;5096457;28;19912;-80
2021/12/18 02:00:18;;;;;;;;;;;6.30;99.90;;;;;;5096445;28;20011;-82
2021/12/18 02:02:44;;;;;;;;;;;6.30;99.90;;;;;;5096449;28;20285;-82
2021/12/18 02:05:10;;;;;;;;;;;6.20;99.90;;;;;;5096533;28;19915;-82
2021/12/18 02:07:35;;;;;;;;;;;6.20;99.90;;;;;;5096332;28;19915;-82
2021/12/18 02:10:06;;;;;;;;;;;6.10;99.90;;;;;;5096489;28;19909;-79
2021/12/18 02:12:49;;;;;;;;;;;6.10;99.90;;;;;;5077730;28;19967;-82
2021/12/18 02:20:45;;;;;;;;;;;6.10;99.90;;;;;;5095823;28;19915;-81
2021/12/18 02:23:11;;;;;;;;;;;6.20;99.90;;;;;;5096660;28;20384;-80
2021/12/18 02:25:37;;;;;;;;;;;6.10;99.90;;;;;;5077873;28;19918;-82
2021/12/18 02:28:05;;;;;;;;;;;6.20;99.90;;;;;;5095939;28;19908;-79
2021/12/18 02:30:32;;;;;;;;;;;6.30;99.90;;;;;;5077767;28;19936;-81
2021/12/18 02:32:57;;;;;;;;;;;6.20;99.90;;;;;;5095309;28;19908;-80
2021/12/18 02:35:27;;;;;;;;;;;6.20;99.90;;;;;;5095925;28;19994;-83
2021/12/18 02:38:16;;;;;;;;;;;6.10;99.90;;;;;;5095794;28;19916;-84
2021/12/18 02:43:17;;;;;;;;;;;6.10;99.90;;;;;;5095914;28;19916;-82
2021/12/18 02:45:42;;;;;;;;;;;6.10;99.90;;;;;;5095654;28;19908;-84
2021/12/18 02:48:08;;;;;;;;;;;6.10;99.90;;;;;;5095550;28;19908;-82
2021/12/18 02:50:37;;;;;;;;;;;6.10;99.90;;;;;;5095518;28;19908;-80
2021/12/18 02:53:04;;;;;;;;;;;6.00;99.90;;;;;;5095485;28;19943;-79
2021/12/18 02:55:29;;;;;;;;;;;6.00;99.90;;;;;;5095433;28;19908;-84
2021/12/18 02:57:55;;;;;;;;;;;5.90;99.90;;;;;;5094024;28;20332;-78
2021/12/18 03:00:23;;;;;;;;;;;5.90;99.90;;;;;;5095291;28;19908;-81
2021/12/18 03:02:48;;;;;;;;;;;5.80;99.90;;;;;;5095270;28;19956;-79
2021/12/18 03:05:21;;;;;;;;;;;5.80;99.90;;;;;;5077119;28;19936;-78
2021/12/18 03:07:51;;;;;;;;;;;5.80;99.90;;;;;;5095338;28;19919;-81
2021/12/18 03:24:20;;;;;;;;;;;5.80;99.90;;;;;;5094674;28;19915;-83
2021/12/18 03:26:44;;;;;;;;;;;5.90;99.90;;;;;;5094636;28;19915;-81
2021/12/18 03:29:09;;;;;;;;;;;5.90;99.90;;;;;;5076604;28;19998;-82
2021/12/18 03:31:35;;;;;;;;;;;5.80;99.90;;;;;;5094729;28;19954;-84
2021/12/18 03:34:01;;;;;;;;;;;5.80;99.90;;;;;;5094697;28;19915;-82
2021/12/18 03:36:27;;;;;;;;;;;5.80;99.90;;;;;;5076475;28;19912;-83
2021/12/18 03:38:52;;;;;;;;;;;5.80;99.90;;;;;;5094583;28;19965;-80
2021/12/18 03:41:18;;;;;;;;;;;5.80;99.90;;;;;;5094560;28;19908;-83
2021/12/18 03:43:43;;;;;;;;;;;5.80;99.90;;;;;;5075282;28;19912;-79
2021/12/18 03:46:09;;;;;;;;;;;5.80;99.90;;;;;;5094954;28;19914;-82
2021/12/18 03:48:34;;;;;;;;;;;5.70;99.90;;;;;;5094562;28;19908;-81
2021/12/18 03:51:00;;;;;;;;;;;5.70;99.90;;;;;;5094433;28;20004;-80
2021/12/18 03:53:26;;;;;;;;;;;5.60;99.90;;;;;;5094354;28;20384;-79
2021/12/18 03:55:51;;;;;;;;;;;5.60;99.90;;;;;;5094304;28;20246;-81
2021/12/18 03:58:17;;;;;;;;;;;5.60;99.90;;;;;;5075973;28;19919;-80
2021/12/18 04:00:42;;;;;;;;;;;5.60;99.90;;;;;;5076041;28;19990;-80
2021/12/18 04:03:08;;;;;;;;;;;5.70;99.90;;;;;;5094353;28;19916;-80
2021/12/18 04:05:34;;;;;;;;;;;5.60;99.90;;;;;;5076236;28;20368;-84
2021/12/18 04:08:08;;;;;;;;;;;5.70;99.90;;;;;;5075652;28;19907;-82
2021/12/18 04:10:35;;;;;;;;;;;5.60;99.90;;;;;;5094284;28;19908;-78
2021/12/18 04:13:00;;;;;;;;;;;5.60;99.90;;;;;;5093947;28;19946;-84
2021/12/18 04:15:26;;;;;;;;;;;5.60;99.90;;;;;;5075872;28;19912;-83
2021/12/18 04:17:52;;;;;;;;;;;5.60;99.90;;;;;;5093909;28;20353;-81
2021/12/18 04:20:17;;;;;;;;;;;5.60;99.90;;;;;;5093968;28;19908;-82
2021/12/18 04:22:43;;;;;;;;;;;5.60;99.90;;;;;;5075805;28;20375;-80
2021/12/18 04:25:08;;;;;;;;;;;5.50;99.90;;;;;;5075749;28;19977;-80
2021/12/18 04:27:34;;;;;;;;;;;5.40;99.90;;;;;;5075744;28;19908;-79
2021/12/18 04:30:00;;;;;;;;;;;5.40;99.90;;;;;;5093843;28;19908;-79
2021/12/18 04:32:25;;;;;;;;;;;5.40;99.90;;;;;;5093814;28;19908;-82
2021/12/18 04:34:51;;;;;;;;;;;5.40;99.90;;;;;;5093750;28;19908;-80
2021/12/18 04:37:17;;;;;;;;;;;5.40;99.90;;;;;;5075557;28;19995;-81
2021/12/18 04:39:42;;;;;;;;;;;5.50;99.90;;;;;;5093829;28;19908;-82
2021/12/18 04:42:08;;;;;;;;;;;5.50;99.90;;;;;;5093705;28;19957;-84
2021/12/18 04:44:33;;;;;;;;;;;5.30;99.90;;;;;;5093780;28;19909;-82
2021/12/18 04:46:59;;;;;;;;;;;5.30;99.90;;;;;;5093665;28;19908;-83
2021/12/18 04:49:25;;;;;;;;;;;5.30;99.90;;;;;;5093662;28;19936;-81
2021/12/18 04:51:50;;;;;;;;;;;5.30;99.90;;;;;;5093631;28;19909;-79
2021/12/18 04:54:16;;;;;;;;;;;5.30;99.90;;;;;;5093591;28;19916;-79
2021/12/18 04:56:42;;;;;;;;;;;5.30;99.90;;;;;;5095937;28;19948;-83
2021/12/18 04:59:07;;;;;;;;;;;5.20;99.90;;;;;;5097999;28;19919;-84
2021/12/18 05:01:36;;;;;;;;;;;5.20;99.90;;;;;;5097796;28;19973;-81
2021/12/18 05:04:04;;;;;;;;;;;5.20;99.90;;;;;;5098152;28;19916;-83
2021/12/18 05:06:31;;;;;;;;;;;5.20;99.90;;;;;;5097515;28;19909;-83
2021/12/18 05:08:57;;;;;;;;;;;5.20;99.90;;;;;;5097490;28;19912;-82
2021/12/18 05:11:22;;;;;;;;;;;4.90;99.90;;;;;;5097364;28;19912;-81
2021/12/18 05:13:48;;;;;;;;;;;5.00;99.90;;;;;;5096959;28;19924;-82
2021/12/18 05:16:13;;;;;;;;;;;5.00;99.90;;;;;;5097363;28;19957;-80
2021/12/18 05:18:39;;;;;;;;;;;5.00;99.90;;;;;;5097308;28;20465;-79
2021/12/18 05:21:04;;;;;;;;;;;5.10;99.90;;;;;;5095896;28;19915;-81
2021/12/18 05:23:30;;;;;;;;;;;5.10;99.90;;;;;;5097239;28;19914;-83
2021/12/18 05:25:56;;;;;;;;;;;5.00;99.90;;;;;;5097213;28;20372;-83
2021/12/18 05:28:21;;;;;;;;;;;5.00;99.90;;;;;;5097167;28;19908;-82
2021/12/18 05:30:47;;;;;;;;;;;5.00;99.90;;;;;;5097087;28;20417;-80
2021/12/18 05:33:12;;;;;;;;;;;4.90;99.90;;;;;;5097004;28;19908;-80
2021/12/18 05:35:39;;;;;;;;;;;4.90;99.90;;;;;;5097088;28;19908;-80
2021/12/18 05:38:04;;;;;;;;;;;4.90;99.90;;;;;;5096896;28;19912;-84
2021/12/18 05:40:31;;;;;;;;;;;4.80;99.90;;;;;;5096842;28;19909;-83
2021/12/18 05:42:57;;;;;;;;;;;4.90;99.90;;;;;;5096882;28;19918;-79
2021/12/18 05:45:23;;;;;;;;;;;4.80;99.90;;;;;;5097034;28;19908;-82
2021/12/18 05:47:49;;;;;;;;;;;4.90;99.90;;;;;;5096961;28;19954;-79
2021/12/18 05:50:16;;;;;;;;;;;4.80;99.90;;;;;;5096886;28;19961;-81
2021/12/18 05:52:42;;;;;;;;;;;4.90;99.90;;;;;;5096605;28;20426;-81
2021/12/18 05:55:08;;;;;;;;;;;4.80;99.90;;;;;;5096664;28;19908;-85
2021/12/18 05:57:34;;;;;;;;;;;4.70;99.90;;;;;;5096496;28;20364;-83
2021/12/18 05:59:59;;;;;;;;;;;4.60;99.90;;;;;;5096846;28;19916;-82
2021/12/18 06:02:25;;;;;;;;;;;4.70;99.90;;;;;;5078283;28;19909;-79
2021/12/18 06:04:50;;;;;;;;;;;4.80;99.90;;;;;;5096512;28;19908;-81
2021/12/18 06:07:28;;;;;;;;;;;4.80;99.90;;;;;;5077096;28;20376;-81
2021/12/18 06:09:54;;;;;;;;;;;4.80;99.90;;;;;;5096779;28;19916;-79
2021/12/18 06:12:20;;;;;;;;;;;4.70;99.90;;;;;;5077989;28;19920;-82
2021/12/18 06:14:46;;;;;;;;;;;4.60;99.90;;;;;;5096456;28;19962;-82
2021/12/18 06:17:11;;;;;;;;;;;4.70;99.90;;;;;;5078056;28;19995;-78
2021/12/18 06:19:37;;;;;;;;;;;4.80;99.90;;;;;;5077940;28;19912;-78
2021/12/18 06:22:02;;;;;;;;;;;4.80;99.90;;;;;;5094834;28;19987;-83
2021/12/18 06:24:28;;;;;;;;;;;4.80;99.90;;;;;;5077908;28;20364;-82
2021/12/18 06:26:54;;;;;;;;;;;4.80;99.90;;;;;;5096143;28;19908;-82
2021/12/18 06:29:20;;;;;;;;;;;4.70;99.90;;;;;;5095927;28;19915;-83
2021/12/18 06:31:45;;;;;;;;;;;4.70;99.90;;;;;;5096307;28;19950;-81
2021/12/18 06:34:12;;;;;;;;;;;4.70;99.90;;;;;;5095826;28;19995;-79
2021/12/18 06:36:38;;;;;;;;;;;4.60;99.90;;;;;;5096104;28;19944;-81
2021/12/18 06:39:04;;;;;;;;;;;4.60;99.90;;;;;;5095748;28;20403;-83
2021/12/18 06:41:30;;;;;;;;;;;4.60;99.90;;;;;;5095688;28;20388;-79
2021/12/18 06:43:55;;;;;;;;;;;4.60;99.90;;;;;;5095666;28;19915;-78
2021/12/18 06:46:21;;;;;;;;;;;4.60;99.90;;;;;;5095612;28;19944;-82
2021/12/18 06:48:47;;;;;;;;;;;4.50;99.90;;;;;;5095548;28;20380;-81
2021/12/18 06:51:15;;;;;;;;;;;4.50;99.90;;;;;;5077392;28;19908;-80
2021/12/18 06:53:40;;;;;;;;;;;4.40;99.90;;;;;;5095546;28;20383;-78
2021/12/18 06:56:06;;;;;;;;;;;4.40;99.90;;;;;;5095490;28;19915;-82
2021/12/18 06:58:31;;;;;;;;;;;4.40;99.90;;;;;;5095616;28;20318;-79
2021/12/18 07:00:57;;;;;;;;;;;4.40;99.90;;;;;;5095332;28;19914;-81
2021/12/18 07:03:23;;;;;;;;;;;4.40;99.90;;;;;;5077187;28;19961;-81
2021/12/18 07:05:49;;;;;;;;;;;4.40;99.90;;;;;;5095567;28;19908;-80
2021/12/18 07:08:14;;;;;;;;;;;4.50;99.90;;;;;;5095213;28;19908;-82
2021/12/18 07:10:40;;;;;;;;;;;4.50;99.90;;;;;;5095114;28;19912;-80
2021/12/18 07:13:06;;;;;;;;;;;4.50;99.90;;;;;;5076717;28;19920;-81
2021/12/18 07:15:32;;;;;;;;;;;4.40;99.90;;;;;;5076846;28;19946;-81
2021/12/18 07:17:57;;;;;;;;;;;4.40;99.90;;;;;;5094727;28;19954;-80
2021/12/18 07:20:23;;;;;;;;;;;4.20;99.90;;;;;;5076784;28;19915;-79
2021/12/18 07:22:49;;;;;;;;;;;4.30;99.90;;;;;;5076681;28;19915;-78
2021/12/18 07:25:14;;;;;;;;;;;4.20;99.90;;;;;;5076731;28;20424;-81
2021/12/18 07:27:40;;;;;;;;;;;4.20;99.90;;;;;;5095212;28;19994;-81
2021/12/18 07:30:06;;;;;;;;;;;4.00;99.90;;;;;;5094760;28;19914;-84
2021/12/18 07:32:31;;;;;;;;;;;3.80;99.90;;;;;;5076506;28;20288;-82
2021/12/18 07:34:57;;;;;;;;;;;3.80;99.90;;;;;;5094694;28;19955;-79
2021/12/18 07:37:24;;;;;;;;;;;3.80;99.90;;;;;;5094975;28;19912;-83
2021/12/18 07:39:53;;;;;;;;;;;3.90;99.90;;;;;;5094758;28;19916;-83
2021/12/18 07:42:18;;;;;;;;;;;3.80;99.90;;;;;;5094500;28;19939;-81
2021/12/18 07:44:44;;;;;;;;;;;3.70;99.90;;;;;;5094393;28;19962;-82
2021/12/18 07:47:10;;;;;;;;;;;3.60;99.90;;;;;;5076190;28;19916;-80
2021/12/18 07:49:35;;;;;;;;;;;3.50;99.90;;;;;;5076233;28;19946;-81
2021/12/18 07:52:04;;;;;;;;;;;3.60;99.90;;;;;;5094446;28;19916;-80
2021/12/18 07:54:29;;;;;;;;;;;3.60;99.90;;;;;;5093034;28;19955;-80
2021/12/18 07:56:55;;;;;;;;;;;3.50;99.90;;;;;;5094294;28;20375;-82
2021/12/18 07:59:21;;;;;;;;;;;3.40;99.90;;;;;;5094393;28;20288;-81
2021/12/18 08:01:46;;;;;;;;;;;3.40;99.90;;;;;;5092897;28;19912;-83
2021/12/18 08:04:12;;;;;;;;;;;3.40;99.90;;;;;;5094287;28;20006;-81
2021/12/18 08:06:38;;;;;;;;;;;3.50;99.90;;;;;;5094102;28;19908;-81
2021/12/18 08:09:03;;;;;;;;;;;3.60;99.90;;;;;;5094084;28;20399;-79
2021/12/18 08:11:29;;;;;;;;;;;3.60;99.90;;;;;;5094446;28;19912;-81
2021/12/18 08:13:54;;;;;;;;;;;3.80;99.90;;;;;;5075412;28;19927;-82
2021/12/18 08:16:20;;;;;;;;;;;3.80;99.90;;;;;;5094013;28;20357;-84
2021/12/18 08:18:45;;;;;;;;;;;4.00;99.90;;;;;;5075690;28;19961;-82
2021/12/18 08:21:11;;;;;;;;;;;4.10;99.90;;;;;;5094152;28;19948;-81
2021/12/18 08:23:37;;;;;;;;;;;4.00;99.90;;;;;;5093772;28;20261;-82
2021/12/18 08:26:02;;;;;;;;;;;4.10;99.90;;;;;;5093677;28;19908;-82
2021/12/18 08:28:28;;;;;;;;;;;4.50;99.90;;;;;;5093956;28;19908;-78
2021/12/18 08:30:53;;;;;;;;;;;4.60;99.90;;;;;;5093198;28;19908;-79
2021/12/18 08:33:19;;;;;;;;;;;5.10;99.90;;;;;;5093805;28;20292;-82
2021/12/18 08:35:45;;;;;;;;;;;5.70;99.90;;;;;;5092384;28;19908;-83
2021/12/18 08:38:10;;;;;;;;;;;6.50;99.90;;;;;;5093657;28;20296;-81
2021/12/18 08:40:38;;;;;;;;;;;7.30;99.90;;;;;;5092301;28;20376;-79
2021/12/18 08:43:04;;;;;;;;;;;7.90;99.90;;;;;;5093722;28;19934;-80
2021/12/18 08:45:29;;;;;;;;;;;8.00;99.90;;;;;;5093706;28;19911;-84
2021/12/18 08:47:55;;;;;;;;;;;8.60;99.90;;;;;;5093645;28;19931;-82
2021/12/18 08:50:21;;;;;;;;;;;9.00;99.80;;;;;;5075498;28;19908;-83
2021/12/18 08:52:48;;;;;;;;;;;9.80;99.40;;;;;;5094223;28;19919;-80
2021/12/18 08:55:14;;;;;;;;;;;10.70;97.00;;;;;;5075491;28;19919;-83
2021/12/18 08:57:40;;;;;;;;;;;11.20;95.30;;;;;;5093722;28;20401;-83
2021/12/18 09:00:09;;;;;;;;;;;11.70;91.30;;;;;;5093714;28;20016;-85
2021/12/18 09:02:35;;;;;;;;;;;12.10;88.30;;;;;;5093510;28;19956;-82
2021/12/18 09:05:00;;;;;;;;;;;12.30;85.10;;;;;;5093565;28;19908;-80
2021/12/18 09:07:27;;;;;;;;;;;12.30;84.30;;;;;;5093491;28;19912;-82
2021/12/18 09:09:53;;;;;;;;;;;12.80;83.80;;;;;;5075351;28;19914;-84
2021/12/18 09:12:18;;;;;;;;;;;12.90;82.30;;;;;;5093165;28;19920;-80
2021/12/18 09:14:44;;;;;;;;;;;12.90;83.90;;;;;;5076174;28;19966;-80
2021/12/18 09:17:10;;;;;;;;;;;13.30;81.60;;;;;;5093384;28;20315;-83
2021/12/18 09:19:36;;;;;;;;;;;14.10;80.00;;;;;;5093646;28;20323;-82
2021/12/18 09:22:04;;;;;;;;;;;14.80;77.80;;;;;;5093612;28;19908;-83
2021/12/18 09:24:29;;;;;;;;;;;15.30;73.50;;;;;;5093371;28;19909;-83
2021/12/18 09:26:55;;;;;;;;;;;15.70;71.80;;;;;;5093580;28;19915;-83
2021/12/18 09:29:21;;;;;;;;;;;16.20;70.20;;;;;;5093296;28;19955;-81
2021/12/18 09:31:46;;;;;;;;;;;16.80;68.50;;;;;;5065675;28;19924;-81
2021/12/18 09:34:12;;;;;;;;;;;17.10;67.20;;;;;;5093139;28;19908;-80
2021/12/18 09:36:37;;;;;;;;;;;17.30;66.40;;;;;;5093607;28;19908;-81
2021/12/18 09:39:03;;;;;;;;;;;17.80;65.20;;;;;;5093294;28;20376;-83
2021/12/18 09:41:29;;;;;;;;;;;18.10;64.80;;;;;;5090381;28;19909;-81
2021/12/18 09:43:55;;;;;;;;;;;18.60;62.60;;;;;;5058846;28;19909;-84
2021/12/18 09:46:20;;;;;;;;;;;18.90;61.80;;;;;;5077060;28;19908;-84
2021/12/18 09:48:46;;;;;;;;;;;18.90;60.90;;;;;;5058894;28;19912;-84
2021/12/18 09:51:22;;;;;;;;;;;18.60;63.30;;;;;;5078007;28;20276;-83
2021/12/18 09:53:48;;;;;;;;;;;20.00;60.00;;;;;;5078708;28;19994;-84
2021/12/18 09:56:14;;;;;;;;;;;20.60;58.50;;;;;;5078757;28;20003;-83
2021/12/18 09:58:40;;;;;;;;;;;20.90;57.50;;;;;;5097214;28;19990;-84
2021/12/18 10:01:05;;;;;;;;;;;21.40;57.40;;;;;;5096217;28;19908;-84
2021/12/18 10:03:44;;;;;;;;;;;22.40;55.30;;;;;;5076751;28;19915;-84
2021/12/18 10:06:29;;;;;;;;;;;23.30;53.70;;;;;;5058473;28;19948;-82
2021/12/18 10:08:55;;;;;;;;;;;23.60;52.80;;;;;;5076480;28;19915;-83
2021/12/18 10:11:21;;;;;;;;;;;23.90;51.80;;;;;;5078182;28;19908;-84
2021/12/18 10:13:54;;;;;;;;;;;23.60;51.10;;;;;;5095922;28;19946;-82
2021/12/18 10:16:20;;;;;;;;;;;23.70;51.50;;;;;;5078444;28;20310;-83
2021/12/18 10:18:46;;;;;;;;;;;23.70;50.50;;;;;;5096547;28;20319;-85
2021/12/18 10:21:13;;;;;;;;;;;25.00;50.00;;;;;;5096086;28;19915;-83
2021/12/18 10:23:40;;;;;;;;;;;25.10;49.90;;;;;;5076275;28;19943;-81
2021/12/18 10:26:05;;;;;;;;;;;24.00;49.10;;;;;;5076053;28;19909;-80
2021/12/18 10:28:46;;;;;;;;;;;24.90;49.40;;;;;;5076191;28;20273;-81
2021/12/18 10:31:12;;;;;;;;;;;26.60;48.20;;;;;;5075843;28;19999;-80
2021/12/18 10:33:37;;;;;;;;;;;26.90;46.60;;;;;;5067023;28;20429;-79
2021/12/18 10:36:03;;;;;;;;;;;25.30;46.60;;;;;;5057959;28;19909;-78
2021/12/18 10:38:39;;;;;;;;;;;23.20;49.20;;;;;;5075921;28;19913;-77
2021/12/18 10:41:23;;;;;;;;;;;25.50;48.00;;;;;;5057704;28;19908;-80
2021/12/18 10:43:52;;;;;;;;;;;25.80;45.70;;;;;;5075729;28;19908;-79
2021/12/18 10:46:19;;;;;;;;;;;24.30;48.30;;;;;;5075836;28;19924;-78
2021/12/18 10:48:53;;;;;;;;;;;25.10;47.10;;;;;;5057573;28;19914;-77
2021/12/18 10:51:23;;;;;;;;;;;24.80;46.60;;;;;;5075966;28;20361;-79
2021/12/18 10:53:49;;;;;;;;;;;24.40;47.30;;;;;;5077345;28;20322;-77
2021/12/18 10:56:14;;;;;;;;;;;23.50;48.40;;;;;;5094360;28;19908;-78
2021/12/18 10:58:40;;;;;;;;;;;23.50;47.80;;;;;;5094599;28;19926;-77
2021/12/18 11:01:07;;;;;;;;;;;24.20;47.80;;;;;;5095549;28;19909;-79
2021/12/18 11:03:44;;;;;;;;;;;23.70;48.10;;;;;;5094939;28;19915;-78
2021/12/18 11:06:20;;;;;;;;;;;23.50;48.10;;;;;;5094093;28;19908;-80
2021/12/18 11:08:51;;;;;;;;;;;23.50;48.10;;;;;;5095575;28;19908;-78
2021/12/18 11:14:05;;;;;;;;;;;24.70;46.90;;;;;;5072901;28;19927;-80
2021/12/18 11:16:35;;;;;;;;;;;24.10;47.60;;;;;;5093456;28;19958;-78
2021/12/18 11:19:02;;;;;;;;;;;24.90;47.70;;;;;;5094667;28;19919;-79
2021/12/18 11:21:29;;;;;;;;;;;25.10;46.30;;;;;;5084588;28;20299;-80
2021/12/18 11:24:05;;;;;;;;;;;24.70;46.50;;;;;;5059174;28;19954;-79
2021/12/18 11:26:51;;;;;;;;;;;24.90;46.50;;;;;;5074487;28;19922;-79
2021/12/18 11:29:21;;;;;;;;;;;25.50;46.20;;;;;;5055942;28;19919;-77
2021/12/18 11:31:47;;;;;;;;;;;25.50;45.80;;;;;;5074243;28;19995;-77
2021/12/18 11:34:13;;;;;;;;;;;25.50;45.80;;;;;;5075188;28;19947;-79
2021/12/18 11:36:39;;;;;;;;;;;25.80;45.20;;;;;;5065500;28;19917;-78
2021/12/18 11:39:05;;;;;;;;;;;25.30;45.00;;;;;;5056555;28;19912;-79
2021/12/18 11:41:31;;;;;;;;;;;25.20;46.30;;;;;;5060654;28;20229;-79
2021/12/18 11:43:56;;;;;;;;;;;25.40;45.70;;;;;;5076009;28;19912;-78
2021/12/18 11:46:37;;;;;;;;;;;25.80;45.10;;;;;;5045171;28;19912;-78
2021/12/18 11:49:04;;;;;;;;;;;26.10;44.90;;;;;;5074240;28;19908;-80
2021/12/18 11:51:30;;;;;;;;;;;25.90;44.50;;;;;;5074433;28;19909;-80
2021/12/18 11:53:56;;;;;;;;;;;25.80;45.30;;;;;;5074662;28;19931;-82
2021/12/18 11:56:22;;;;;;;;;;;26.30;45.20;;;;;;5073521;28;20384;-78
2021/12/18 11:58:49;;;;;;;;;;;26.20;45.30;;;;;;5073630;28;19912;-79
2021/12/18 12:01:17;;;;;;;;;;;26.20;44.50;;;;;;5055650;28;19948;-79
2021/12/18 12:03:45;;;;;;;;;;;25.80;45.10;;;;;;5055935;28;19909;-80
2021/12/18 12:06:30;;;;;;;;;;;25.70;45.50;;;;;;5053086;28;19917;-79
2021/12/18 12:09:20;;;;;;;;;;;25.70;45.70;;;;;;5071783;28;19909;-79
2021/12/18 12:11:49;;;;;;;;;;;26.70;44.40;;;;;;5054470;28;20377;-79
2021/12/18 12:14:14;;;;;;;;;;;26.50;44.50;;;;;;5054908;28;19920;-78
2021/12/18 12:16:46;;;;;;;;;;;26.00;44.70;;;;;;5054851;28;20300;-81
2021/12/18 12:19:15;;;;;;;;;;;26.00;44.90;;;;;;5054926;28;20361;-78
2021/12/18 12:21:47;;;;;;;;;;;25.50;45.10;;;;;;5073339;28;19916;-81
2021/12/18 12:24:14;;;;;;;;;;;25.80;44.90;;;;;;5073107;28;19909;-78
2021/12/18 12:26:39;;;;;;;;;;;26.20;44.60;;;;;;5055224;28;20017;-78
2021/12/18 12:29:06;;;;;;;;;;;25.90;43.90;;;;;;5073341;28;20396;-79
2021/12/18 12:31:31;;;;;;;;;;;26.00;43.60;;;;;;5055313;28;19992;-79
2021/12/18 12:34:16;;;;;;;;;;;25.80;44.70;;;;;;5055261;28;19948;-81
2021/12/18 12:36:45;;;;;;;;;;;25.20;44.50;;;;;;5073287;28;19909;-80
2021/12/18 12:39:11;;;;;;;;;;;25.40;44.20;;;;;;5073042;28;19916;-80
2021/12/18 12:41:42;;;;;;;;;;;25.30;44.60;;;;;;5073388;28;19912;-79
2021/12/18 12:44:25;;;;;;;;;;;25.10;44.40;;;;;;5055176;28;19912;-81
2021/12/18 12:47:09;;;;;;;;;;;24.90;44.80;;;;;;5036134;28;19917;-79
2021/12/18 12:49:35;;;;;;;;;;;25.00;45.10;;;;;;5072974;28;19940;-81
2021/12/18 12:52:03;;;;;;;;;;;25.10;44.00;;;;;;5055531;28;19915;-79
2021/12/18 12:54:49;;;;;;;;;;;24.60;44.30;;;;;;5054977;28;19909;-80
2021/12/18 12:57:21;;;;;;;;;;;24.50;44.80;;;;;;5054879;28;20331;-81
2021/12/18 12:59:47;;;;;;;;;;;24.40;45.60;;;;;;5073082;28;19970;-79
2021/12/18 13:02:13;;;;;;;;;;;24.50;44.90;;;;;;5072763;28;19912;-81
2021/12/18 13:04:39;;;;;;;;;;;25.40;45.10;;;;;;5054782;28;20347;-79
2021/12/18 13:07:06;;;;;;;;;;;25.80;43.80;;;;;;5073028;28;19909;-80
2021/12/18 13:09:32;;;;;;;;;;;25.80;44.90;;;;;;5072949;28;19999;-81
2021/12/18 13:12:02;;;;;;;;;;;28.00;43.10;;;;;;5072780;28;19908;-82
2021/12/18 13:14:38;;;;;;;;;;;26.40;43.20;;;;;;5072489;28;19905;-79
2021/12/18 13:17:19;;;;;;;;;;;26.40;43.50;;;;;;5057263;28;20003;-79
2021/12/18 13:20:17;;;;;;;;;;;26.40;43.80;;;;;;5076574;28;20372;-80
2021/12/18 13:22:51;;;;;;;;;;;25.50;44.40;;;;;;5025707;28;19963;-79
2021/12/18 13:25:16;;;;;;;;;;;24.50;46.30;;;;;;5058133;28;19908;-81
2021/12/18 13:28:00;;;;;;;;;;;24.20;45.90;;;;;;5076471;28;19915;-79
2021/12/18 13:30:26;;;;;;;;;;;24.00;46.70;;;;;;5076562;28;19938;-81
2021/12/18 13:33:18;;;;;;;;;;;23.80;46.80;;;;;;5076354;28;20434;-78
2021/12/18 13:35:43;;;;;;;;;;;23.80;46.60;;;;;;5072992;28;19908;-78
2021/12/18 13:38:11;;;;;;;;;;;23.90;46.70;;;;;;5076061;28;19913;-81
2021/12/18 13:40:46;;;;;;;;;;;23.90;46.60;;;;;;5058295;28;19999;-81
2021/12/18 13:43:17;;;;;;;;;;;24.00;46.90;;;;;;5076398;28;19912;-84
2021/12/18 13:46:02;;;;;;;;;;;23.90;46.80;;;;;;5049308;28;19995;-83
2021/12/18 13:48:30;;;;;;;;;;;23.80;47.80;;;;;;5094852;28;20007;-81
2021/12/18 13:51:16;;;;;;;;;;;23.70;47.80;;;;;;5077840;28;19970;-81
2021/12/18 13:53:52;;;;;;;;;;;23.90;49.10;;;;;;5095426;28;20280;-81
2021/12/18 13:56:18;;;;;;;;;;;25.60;47.00;;;;;;5094554;28;19935;-83
2021/12/18 13:58:46;;;;;;;;;;;25.40;46.30;;;;;;5096260;28;19912;-81
2021/12/18 14:01:16;;;;;;;;;;;25.00;46.70;;;;;;5096149;28;19909;-82
2021/12/18 14:03:45;;;;;;;;;;;25.20;47.20;;;;;;5096134;28;20269;-81
2021/12/18 14:06:13;;;;;;;;;;;25.50;47.50;;;;;;5095715;28;19953;-83
2021/12/18 14:08:40;;;;;;;;;;;26.40;46.00;;;;;;5096094;28;19908;-83
2021/12/18 14:11:06;;;;;;;;;;;27.40;45.60;;;;;;5077793;28;19908;-82
2021/12/18 14:13:51;;;;;;;;;;;27.50;45.80;;;;;;5077504;28;19920;-84
2021/12/18 14:16:18;;;;;;;;;;;27.60;44.80;;;;;;5095430;28;19998;-82
2021/12/18 14:18:51;;;;;;;;;;;27.10;45.80;;;;;;5077665;28;20325;-83
2021/12/18 14:21:17;;;;;;;;;;;28.20;44.10;;;;;;5077455;28;20364;-81
2021/12/18 14:23:45;;;;;;;;;;;26.70;45.20;;;;;;5095807;28;19908;-82
2021/12/18 14:26:10;;;;;;;;;;;27.00;45.70;;;;;;5076963;28;19944;-81
2021/12/18 14:28:36;;;;;;;;;;;27.30;45.60;;;;;;5094755;28;20080;-85
2021/12/18 14:31:02;;;;;;;;;;;27.60;45.20;;;;;;5095607;28;19916;-83
2021/12/18 14:33:27;;;;;;;;;;;28.00;44.50;;;;;;5095813;28;20393;-84
2021/12/18 14:35:54;;;;;;;;;;;28.00;44.20;;;;;;5095168;28;19912;-85
2021/12/18 14:38:24;;;;;;;;;;;27.70;44.90;;;;;;5077119;28;19912;-82
2021/12/18 14:41:00;;;;;;;;;;;27.30;44.90;;;;;;5077268;28;19908;-82
2021/12/18 14:43:26;;;;;;;;;;;27.60;45.00;;;;;;5095458;28;20360;-82
2021/12/18 14:45:52;;;;;;;;;;;27.30;45.30;;;;;;5075962;28;19919;-80
2021/12/18 14:48:27;;;;;;;;;;;27.30;45.20;;;;;;5095046;28;19958;-84
2021/12/18 14:50:53;;;;;;;;;;;26.80;45.50;;;;;;5076899;28;20021;-81
2021/12/18 14:53:22;;;;;;;;;;;27.00;46.20;;;;;;5095194;28;19918;-82
2021/12/18 14:55:51;;;;;;;;;;;26.80;45.10;;;;;;5094804;28;19908;-83
2021/12/18 14:58:25;;;;;;;;;;;25.80;46.70;;;;;;5094942;28;20342;-84
2021/12/18 15:01:04;;;;;;;;;;;26.30;46.50;;;;;;5076875;28;19942;-81
2021/12/18 15:03:30;;;;;;;;;;;26.70;45.60;;;;;;5076586;28;19907;-82
2021/12/18 15:06:04;;;;;;;;;;;26.20;45.90;;;;;;5094612;28;19957;-83